• Join FlightAware (Why Join?)
  • Login
  • US Flag 
11:12AM EDT


 

Airport Tracker/Info


-or-


 

Live Flight TrackerFlight Track Log ✈ CTL16 ✈ 07-May-2013 ✈ KHAO - KBKL

Flight Track Log - Related Links

Times and Time Zones

All times are in EDT time to prevent confusion due to time zone crossing. See the CTL16 flight status page for this flight to view local times or setup timezone preferences in your user account.

Time Position Orientation Groundspeed Altitude Reporting Facility
EDT Latitude Longitude Course Direction KTS MPH feet Rate Location/Type
08:29PM 39.4167 -84.4333 60° Northeast 160 184 1,700  Level Cincinnati TRACON
08:31PM 39.4558 -84.3453 60° Northeast 183 211 1,900 300 Climbing Indianapolis Center
08:31PM 39.4800 -84.3161 43° Northeast 157 181 2,500 840 Climbing Indianapolis Center
08:32PM 39.4875 -84.3056 47° Northeast 161 185 2,800 660 Climbing Indianapolis Center
08:33PM 39.5139 -84.2739 43° Northeast 141 162 3,400 600 Climbing Indianapolis Center
08:33PM 39.5358 -84.2450 45° Northeast 137 158 3,900 660 Climbing Indianapolis Center
08:34PM 39.5411 -84.2375 48° Northeast 138 159 4,100 720 Climbing Indianapolis Center
08:35PM 39.5683 -84.2036 44° Northeast 136 157 4,900 840 Climbing Indianapolis Center
08:36PM 39.5944 -84.1686 46° Northeast 120 138 5,800 780 Climbing Indianapolis Center
08:37PM 39.6175 -84.1392 45° Northeast 119 137 6,500 660 Climbing Indianapolis Center
08:37PM 39.6336 -84.1225 39° Northeast 119 137 6,900 420 Climbing Indianapolis Center
08:38PM 39.6456 -84.1064 46° Northeast 121 139 7,000 60 Climbing Indianapolis Center
08:39PM 39.6683 -84.0781 44° Northeast 151 174 7,000 60 Level Indianapolis Center
08:39PM 39.6756 -84.0675 48° Northeast 142 163 7,100  Climbing Indianapolis Center
08:40PM 39.6964 -84.0439 41° Northeast 156 180 7,000 -120 Descending Indianapolis Center
08:40PM 39.7069 -84.0300 45° Northeast 151 174 7,000  Level Indianapolis Center
08:40PM 39.7242 -84.0067 46° Northeast 158 182 7,000  Level Indianapolis Center
08:41PM 39.7383 -83.9889 44° Northeast 155 178 7,000  Level Indianapolis Center
08:42PM 39.7589 -83.9650 42° Northeast 156 180 7,000  Level Indianapolis Center
08:42PM 39.7703 -83.9492 47° Northeast 156 180 7,000  Level Indianapolis Center
08:42PM 39.7867 -83.9306 41° Northeast 156 180 7,000  Level Indianapolis Center
08:43PM 39.8017 -83.9100 46° Northeast 156 180 7,000  Level Indianapolis Center
08:44PM 39.8264 -83.8786 44° Northeast 157 181 7,000  Level Indianapolis Center
08:44PM 39.8328 -83.8700 46° Northeast 155 178 7,000  Level Indianapolis Center
08:45PM 39.8633 -83.8317 44° Northeast 156 180 7,000  Level Indianapolis Center
08:46PM 39.8953 -83.7906 45° Northeast 155 178 7,000 60 Level Indianapolis Center
08:47PM 39.9119 -83.7700 43° Northeast 154 177 7,100 60 Climbing Indianapolis Center
08:47PM 39.9253 -83.7494 50° Northeast 155 178 7,100 -120 Level Indianapolis Center
08:48PM 39.9539 -83.7128 44° Northeast 154 177 7,000 -120 Descending Indianapolis Center
08:49PM 39.9794 -83.6806 44° Northeast 154 177 7,000 60 Level Indianapolis Center
08:49PM 39.9861 -83.6692 53° Northeast 153 176 7,100  Climbing Indianapolis Center
08:50PM 40.0119 -83.6383 42° Northeast 153 176 7,000 -120 Descending Indianapolis Center
08:50PM 40.0181 -83.6308 43° Northeast 154 177 7,000  Level Indianapolis Center
08:51PM 40.0419 -83.5983 46° Northeast 153 176 7,000  Level Indianapolis Center
08:51PM 40.0533 -83.5850 42° Northeast 152 175 7,000 -180 Level Indianapolis Center
08:52PM 40.0672 -83.5689 42° Northeast 153 176 6,900 -120 Descending Indianapolis Center
08:52PM 40.0842 -83.5461 46° Northeast 152 175 6,900 60 Level Indianapolis Center
08:53PM 40.0975 -83.5289 45° Northeast 150 173 7,000  Climbing Indianapolis Center
08:53PM 40.1153 -83.5083 41° Northeast 151 174 6,900  Descending Indianapolis Center
08:54PM 40.1339 -83.4869 41° Northeast 152 175 7,000 60 Climbing Indianapolis Center
08:54PM 40.1467 -83.4700 45° Northeast 152 175 7,000  Level Indianapolis Center
08:55PM 40.1639 -83.4497 42° Northeast 153 176 7,000  Level Indianapolis Center
08:55PM 40.1778 -83.4303 47° Northeast 154 177 7,000  Level Indianapolis Center
08:56PM 40.1939 -83.4097 44° Northeast 153 176 7,000  Level Indianapolis Center
08:56PM 40.2094 -83.3914 42° Northeast 154 177 7,000  Level Indianapolis Center
08:57PM 40.2261 -83.3700 44° Northeast 154 177 7,000  Level Indianapolis Center
08:57PM 40.2392 -83.3508 48° Northeast 154 177 7,000  Level Indianapolis Center
08:58PM 40.2583 -83.3303 39° Northeast 158 182 7,000  Level Indianapolis Center
08:58PM 40.2722 -83.3114 46° Northeast 158 182 7,000 -120 Level Indianapolis Center
08:59PM 40.2883 -83.2900 45° Northeast 156 180 6,900 -120 Descending Indianapolis Center
08:59PM 40.3033 -83.2719 43° Northeast 155 178 6,900  Level Indianapolis Center
09:00PM 40.3178 -83.2553 41° Northeast 156 180 6,900 60 Level Indianapolis Center
09:00PM 40.3353 -83.2333 44° Northeast 155 178 7,000  Climbing Indianapolis Center
09:01PM 40.3653 -83.1928 46° Northeast 153 176 6,900  Descending Indianapolis Center
09:02PM 40.3950 -83.1528 46° Northeast 152 175 7,000  Climbing Indianapolis Center
09:03PM 40.4258 -83.1147 43° Northeast 149 171 7,000  Level Indianapolis Center
09:05PM 40.4556 -83.0750 45° Northeast 150 173 7,000  Level Indianapolis Center
09:06PM 40.4847 -83.0353 46° Northeast 150 173 7,000  Level Indianapolis Center
09:07PM 40.5175 -82.9950 43° Northeast 151 174 7,000  Level Indianapolis Center
09:08PM 40.5472 -82.9544 46° Northeast 152 175 7,000  Level Indianapolis Center
09:09PM 40.5783 -82.9142 45° Northeast 155 178 7,000  Level Indianapolis Center
09:10PM 40.6081 -82.8728 47° Northeast 155 178 7,000  Level Indianapolis Center
09:11PM 40.6383 -82.8317 46° Northeast 155 178 7,000  Level Indianapolis Center
09:12PM 40.6744 -82.7844 45° Northeast 156 180 7,000 -240 Level Indianapolis Center
09:13PM 40.7067 -82.7444 43° Northeast 157 181 6,600 -540 Descending Indianapolis Center
09:14PM 40.7417 -82.6997 44° Northeast 170 196 6,000 -600 Descending Indianapolis Center